<?xml version="1.0" encoding="utf-8"?>
<gpx xmlns:xsi="http://www.w3.org/2001/XMLSchema-instance" xmlns:xsd="http://www.w3.org/2001/XMLSchema" version="1.1" creator="Shapelink.com" xmlns="http://www.topografix.com/GPX/1/1" xmlns:gpxtpx="http://www.garmin.com/xmlschemas/TrackPointExtension/v1">
  <metadata>
    <name>Övrigt 1.89 km, 2020-09-06</name>
    <desc></desc>
    <author><name>Marian Moron</name></author> 
    <time>2020-09-06T20:49:15Z</time>
  </metadata>
  <trk>
    <name>Övrigt 1.89 km, 2020-09-06</name>
    <trkseg>
      <trkpt lat="51.229916565317" lon="4.458060449707">
        <ele>9.2</ele>
        <time>2020-09-06T20:49:15Z</time>
      </trkpt>
      <trkpt lat="51.229948835632" lon="4.458167067475">
        <ele>8.2</ele>
        <time>2020-09-06T20:49:27Z</time>
      </trkpt>
      <trkpt lat="51.22993391585" lon="4.458372507844">
        <ele>8</ele>
        <time>2020-09-06T20:49:41Z</time>
      </trkpt>
      <trkpt lat="51.230187300687" lon="4.458821190951">
        <ele>8.2</ele>
        <time>2020-09-06T20:50:29Z</time>
      </trkpt>
      <trkpt lat="51.230400620042" lon="4.458803169866">
        <ele>3.6</ele>
        <time>2020-09-06T20:50:53Z</time>
      </trkpt>
      <trkpt lat="51.2305416036" lon="4.45944824089">
        <ele>0</ele>
        <time>2020-09-06T20:51:40Z</time>
      </trkpt>
      <trkpt lat="51.230523414877" lon="4.459752252403">
        <ele>0</ele>
        <time>2020-09-06T20:53:00Z</time>
      </trkpt>
      <trkpt lat="51.230487372707" lon="4.459775721723">
        <ele>0</ele>
        <time>2020-09-06T20:53:04Z</time>
      </trkpt>
      <trkpt lat="51.230524336886" lon="4.459913101064">
        <ele>0</ele>
        <time>2020-09-06T20:53:39Z</time>
      </trkpt>
      <trkpt lat="51.230548392939" lon="4.459952747451">
        <ele>0</ele>
        <time>2020-09-06T20:53:43Z</time>
      </trkpt>
      <trkpt lat="51.23060279147" lon="4.460438310918">
        <ele>0</ele>
        <time>2020-09-06T20:54:27Z</time>
      </trkpt>
      <trkpt lat="51.23041503691" lon="4.460835948254">
        <ele>0</ele>
        <time>2020-09-06T20:56:29Z</time>
      </trkpt>
      <trkpt lat="51.229971969676" lon="4.460964442781">
        <ele>0</ele>
        <time>2020-09-06T20:57:32Z</time>
      </trkpt>
      <trkpt lat="51.229729481309" lon="4.461067456332">
        <ele>0</ele>
        <time>2020-09-06T20:58:38Z</time>
      </trkpt>
      <trkpt lat="51.229767702773" lon="4.461179689973">
        <ele>0</ele>
        <time>2020-09-06T20:59:08Z</time>
      </trkpt>
      <trkpt lat="51.229826208435" lon="4.461382364315">
        <ele>0</ele>
        <time>2020-09-06T20:59:24Z</time>
      </trkpt>
      <trkpt lat="51.230016561384" lon="4.461967253297">
        <ele>3.6</ele>
        <time>2020-09-06T21:00:37Z</time>
      </trkpt>
      <trkpt lat="51.23004204236" lon="4.462150230174">
        <ele>5</ele>
        <time>2020-09-06T21:00:59Z</time>
      </trkpt>
      <trkpt lat="51.230137679839" lon="4.462427419607">
        <ele>3.8</ele>
        <time>2020-09-06T21:01:24Z</time>
      </trkpt>
      <trkpt lat="51.230148743947" lon="4.462467233632">
        <ele>3.8</ele>
        <time>2020-09-06T21:01:27Z</time>
      </trkpt>
      <trkpt lat="51.23019962208" lon="4.462870989755">
        <ele>5</ele>
        <time>2020-09-06T21:01:46Z</time>
      </trkpt>
      <trkpt lat="51.230380168206" lon="4.463224789754">
        <ele>9</ele>
        <time>2020-09-06T21:02:15Z</time>
      </trkpt>
      <trkpt lat="51.230464154844" lon="4.4634539509">
        <ele>9</ele>
        <time>2020-09-06T21:02:37Z</time>
      </trkpt>
      <trkpt lat="51.230596169769" lon="4.464133136257">
        <ele>0</ele>
        <time>2020-09-06T21:03:29Z</time>
      </trkpt>
      <trkpt lat="51.230719132242" lon="4.464598750802">
        <ele>6.6</ele>
        <time>2020-09-06T21:04:04Z</time>
      </trkpt>
      <trkpt lat="51.230746373417" lon="4.464816596383">
        <ele>6.8</ele>
        <time>2020-09-06T21:04:22Z</time>
      </trkpt>
      <trkpt lat="51.230789624021" lon="4.465047433909">
        <ele>2.2</ele>
        <time>2020-09-06T21:04:44Z</time>
      </trkpt>
      <trkpt lat="51.230790294573" lon="4.465213395529">
        <ele>2.2</ele>
        <time>2020-09-06T21:04:56Z</time>
      </trkpt>
      <trkpt lat="51.230784511062" lon="4.465923593916">
        <ele>0</ele>
        <time>2020-09-06T21:05:39Z</time>
      </trkpt>
      <trkpt lat="51.230746792512" lon="4.46663320557">
        <ele>0</ele>
        <time>2020-09-06T21:06:45Z</time>
      </trkpt>
      <trkpt lat="51.230747463064" lon="4.466669415378">
        <ele>0</ele>
        <time>2020-09-06T21:06:47Z</time>
      </trkpt>
      <trkpt lat="51.230755258231" lon="4.466815176619">
        <ele>0</ele>
        <time>2020-09-06T21:06:58Z</time>
      </trkpt>
      <trkpt lat="51.23075450386" lon="4.466959429118">
        <ele>0</ele>
        <time>2020-09-06T21:07:10Z</time>
      </trkpt>
      <trkpt lat="51.230815524092" lon="4.467261261337">
        <ele>0</ele>
        <time>2020-09-06T21:07:44Z</time>
      </trkpt>
      <trkpt lat="51.230883501301" lon="4.467220190027">
        <ele>0</ele>
        <time>2020-09-06T21:07:55Z</time>
      </trkpt>
      <trkpt lat="51.230938821841" lon="4.467211305213">
        <ele>0</ele>
        <time>2020-09-06T21:08:00Z</time>
      </trkpt>
      <trkpt lat="51.231116266664" lon="4.467132515353">
        <ele>0</ele>
        <time>2020-09-06T21:08:22Z</time>
      </trkpt>
      <trkpt lat="51.231368226578" lon="4.4665217263">
        <ele>0</ele>
        <time>2020-09-06T21:09:06Z</time>
      </trkpt>
      <trkpt lat="51.231418517978" lon="4.466341012536">
        <ele>0</ele>
        <time>2020-09-06T21:09:22Z</time>
      </trkpt>
      <trkpt lat="51.231451375026" lon="4.466242944306">
        <ele>0</ele>
        <time>2020-09-06T21:09:31Z</time>
      </trkpt>
      <trkpt lat="51.231558579527" lon="4.466008083468">
        <ele>0</ele>
        <time>2020-09-06T21:10:03Z</time>
      </trkpt>
      <trkpt lat="51.231640973604" lon="4.465822172926">
        <ele>0</ele>
        <time>2020-09-06T21:10:26Z</time>
      </trkpt>
      <trkpt lat="51.231726217527" lon="4.465618744213">
        <ele>0</ele>
        <time>2020-09-06T21:10:41Z</time>
      </trkpt>
      <trkpt lat="51.231789752329" lon="4.465501732889">
        <ele>0</ele>
        <time>2020-09-06T21:11:05Z</time>
      </trkpt>
      <trkpt lat="51.231931657896" lon="4.465272236467">
        <ele>0</ele>
        <time>2020-09-06T21:11:27Z</time>
      </trkpt>
      <trkpt lat="51.232199459601" lon="4.464687096028">
        <ele>0</ele>
        <time>2020-09-06T21:12:10Z</time>
      </trkpt>
      <trkpt lat="51.232319572228" lon="4.464153336636">
        <ele>0</ele>
        <time>2020-09-06T21:12:51Z</time>
      </trkpt>
      <trkpt lat="51.232363493384" lon="4.463761231354">
        <ele>0</ele>
        <time>2020-09-06T21:13:34Z</time>
      </trkpt>
      <trkpt lat="51.23234622667" lon="4.463527208706">
        <ele>0</ele>
        <time>2020-09-06T21:13:49Z</time>
      </trkpt>
      <trkpt lat="51.232314710726" lon="4.463289078927">
        <ele>0.2</ele>
        <time>2020-09-06T21:14:20Z</time>
      </trkpt>
      <trkpt lat="51.232273052683" lon="4.463031084045">
        <ele>2.2</ele>
        <time>2020-09-06T21:14:41Z</time>
      </trkpt>
      <trkpt lat="51.232070965074" lon="4.46273646026">
        <ele>0.6</ele>
        <time>2020-09-06T21:15:46Z</time>
      </trkpt>
      <trkpt lat="51.232088650883" lon="4.462320550382">
        <ele>0</ele>
        <time>2020-09-06T21:16:25Z</time>
      </trkpt>
      <trkpt lat="51.232095356403" lon="4.462268666421">
        <ele>0</ele>
        <time>2020-09-06T21:16:28Z</time>
      </trkpt>
      <trkpt lat="51.23208135863" lon="4.461926852539">
        <ele>0</ele>
        <time>2020-09-06T21:17:23Z</time>
      </trkpt>
      <trkpt lat="51.231996869078" lon="4.461462076184">
        <ele>0</ele>
        <time>2020-09-06T21:18:07Z</time>
      </trkpt>
      <trkpt lat="51.231997958725" lon="4.461426117833">
        <ele>0</ele>
        <time>2020-09-06T21:18:09Z</time>
      </trkpt>
      <trkpt lat="51.231921348159" lon="4.460777358773">
        <ele>0</ele>
        <time>2020-09-06T21:18:59Z</time>
      </trkpt>
      <trkpt lat="51.231913552992" lon="4.460490446336">
        <ele>0</ele>
        <time>2020-09-06T21:19:23Z</time>
      </trkpt>
      <trkpt lat="51.231804001559" lon="4.4603526479">
        <ele>0</ele>
        <time>2020-09-06T21:19:43Z</time>
      </trkpt>
      <trkpt lat="51.231659665241" lon="4.459668181946">
        <ele>0</ele>
        <time>2020-09-06T21:20:27Z</time>
      </trkpt>
      <trkpt lat="51.23165723449" lon="4.459623757876">
        <ele>0</ele>
        <time>2020-09-06T21:20:29Z</time>
      </trkpt>
      <trkpt lat="51.231620437949" lon="4.459357632551">
        <ele>0</ele>
        <time>2020-09-06T21:20:47Z</time>
      </trkpt>
      <trkpt lat="51.23156922454" lon="4.459019841981">
        <ele>0</ele>
        <time>2020-09-06T21:21:10Z</time>
      </trkpt>
      <trkpt lat="51.231389348966" lon="4.458502008199">
        <ele>0</ele>
        <time>2020-09-06T21:21:51Z</time>
      </trkpt>
      <trkpt lat="51.231233780902" lon="4.458603764465">
        <ele>0</ele>
        <time>2020-09-06T21:22:08Z</time>
      </trkpt>
      <trkpt lat="51.230911580666" lon="4.458738880693">
        <ele>0</ele>
        <time>2020-09-06T21:23:09Z</time>
      </trkpt>
      <trkpt lat="51.230466837052" lon="4.45887575712">
        <ele>0</ele>
        <time>2020-09-06T21:23:58Z</time>
      </trkpt>
      <trkpt lat="51.23044269718" lon="4.458866872306">
        <ele>0</ele>
        <time>2020-09-06T21:24:00Z</time>
      </trkpt>
      <trkpt lat="51.230388382468" lon="4.458916074059">
        <ele>0</ele>
        <time>2020-09-06T21:24:07Z</time>
      </trkpt>
      <trkpt lat="51.230330128263" lon="4.458960917224">
        <ele>0</ele>
        <time>2020-09-06T21:24:14Z</time>
      </trkpt>
      <trkpt lat="51.230087556077" lon="4.459036019048">
        <ele>0</ele>
        <time>2020-09-06T21:24:44Z</time>
      </trkpt>
      <trkpt lat="51.229901561716" lon="4.459072983227">
        <ele>0</ele>
        <time>2020-09-06T21:25:03Z</time>
      </trkpt>
      <trkpt lat="51.229876164559" lon="4.459010873348">
        <ele>0</ele>
        <time>2020-09-06T21:25:08Z</time>
      </trkpt>
      <trkpt lat="51.229865100451" lon="4.458291203414">
        <ele>0</ele>
        <time>2020-09-06T21:25:47Z</time>
      </trkpt>
      <trkpt lat="51.229727888748" lon="4.457963890219">
        <ele>0</ele>
        <time>2020-09-06T21:26:23Z</time>
      </trkpt>
      <trkpt lat="51.229678100262" lon="4.458032118885">
        <ele>0</ele>
        <time>2020-09-06T21:26:43Z</time>
      </trkpt>
    </trkseg>
  </trk>
</gpx>